sensor_id;sensor_type;location;lat;lon;timestamp;pressure;altitude;pressure_sealevel;temperature;humidity
30618;BME280;17384;51.214;9.202;2023-06-22T00:00:55;99012.75;;;17.01;93.03
30618;BME280;17384;51.214;9.202;2023-06-22T00:03:23;99002.31;;;16.98;93.96
30618;BME280;17384;51.214;9.202;2023-06-22T00:05:49;99000.59;;;16.92;94.47
30618;BME280;17384;51.214;9.202;2023-06-22T00:08:16;98987.25;;;17.01;94.44
30618;BME280;17384;51.214;9.202;2023-06-22T00:10:42;98988.75;;;17.08;93.95
30618;BME280;17384;51.214;9.202;2023-06-22T00:13:08;99000.63;;;16.97;93.73
30618;BME280;17384;51.214;9.202;2023-06-22T00:15:35;98992.50;;;17.02;94.09
30618;BME280;17384;51.214;9.202;2023-06-22T00:18:01;98990.50;;;16.98;93.43
30618;BME280;17384;51.214;9.202;2023-06-22T00:20:28;98993.03;;;16.82;93.18
30618;BME280;17384;51.214;9.202;2023-06-22T00:22:57;98991.72;;;16.85;93.48
30618;BME280;17384;51.214;9.202;2023-06-22T00:25:23;98981.00;;;16.83;93.50
30618;BME280;17384;51.214;9.202;2023-06-22T00:27:49;98977.44;;;16.83;93.88
30618;BME280;17384;51.214;9.202;2023-06-22T00:30:18;98983.06;;;16.93;94.12
30618;BME280;17384;51.214;9.202;2023-06-22T00:32:45;98977.25;;;16.89;93.67
30618;BME280;17384;51.214;9.202;2023-06-22T00:35:12;98961.66;;;16.90;93.73
30618;BME280;17384;51.214;9.202;2023-06-22T00:37:38;98963.56;;;16.89;93.72
30618;BME280;17384;51.214;9.202;2023-06-22T00:40:10;98962.16;;;16.87;93.71
30618;BME280;17384;51.214;9.202;2023-06-22T00:42:37;98956.59;;;16.82;93.80
30618;BME280;17384;51.214;9.202;2023-06-22T00:45:05;98959.00;;;16.78;94.29
30618;BME280;17384;51.214;9.202;2023-06-22T00:47:30;98957.66;;;16.81;94.50
30618;BME280;17384;51.214;9.202;2023-06-22T00:49:56;98949.69;;;16.79;94.79
30618;BME280;17384;51.214;9.202;2023-06-22T00:52:22;98938.16;;;16.77;94.70
30618;BME280;17384;51.214;9.202;2023-06-22T00:54:52;98935.00;;;16.69;95.02
30618;BME280;17384;51.214;9.202;2023-06-22T00:57:28;98926.78;;;16.69;95.65
30618;BME280;17384;51.214;9.202;2023-06-22T00:59:54;98923.50;;;16.67;95.73
30618;BME280;17384;51.214;9.202;2023-06-22T01:02:20;98915.34;;;16.72;95.90
30618;BME280;17384;51.214;9.202;2023-06-22T01:04:45;98916.75;;;16.74;96.38
30618;BME280;17384;51.214;9.202;2023-06-22T01:07:23;98912.50;;;16.83;95.78
30618;BME280;17384;51.214;9.202;2023-06-22T01:10:16;98900.06;;;16.76;96.04
30618;BME280;17384;51.214;9.202;2023-06-22T01:12:47;98906.88;;;16.73;96.48
30618;BME280;17384;51.214;9.202;2023-06-22T01:15:20;98901.47;;;16.78;96.15
30618;BME280;17384;51.214;9.202;2023-06-22T01:17:48;98908.72;;;16.68;96.51
30618;BME280;17384;51.214;9.202;2023-06-22T01:20:15;98896.41;;;16.70;96.99
30618;BME280;17384;51.214;9.202;2023-06-22T01:25:33;98919.97;;;16.71;97.67
30618;BME280;17384;51.214;9.202;2023-06-22T01:28:24;98907.06;;;16.67;98.61
30618;BME280;17384;51.214;9.202;2023-06-22T01:30:51;98920.22;;;16.70;99.22
30618;BME280;17384;51.214;9.202;2023-06-22T01:33:29;98926.53;;;16.70;99.28
30618;BME280;17384;51.214;9.202;2023-06-22T01:35:56;98928.53;;;16.75;98.97
30618;BME280;17384;51.214;9.202;2023-06-22T01:38:22;98932.44;;;16.79;98.14
30618;BME280;17384;51.214;9.202;2023-06-22T01:40:48;98924.78;;;16.81;96.76
30618;BME280;17384;51.214;9.202;2023-06-22T01:43:15;98932.75;;;16.82;97.06
30618;BME280;17384;51.214;9.202;2023-06-22T01:45:41;98947.88;;;16.85;96.62
30618;BME280;17384;51.214;9.202;2023-06-22T01:48:07;98948.94;;;16.84;96.56
30618;BME280;17384;51.214;9.202;2023-06-22T01:50:33;98961.00;;;16.83;96.35
30618;BME280;17384;51.214;9.202;2023-06-22T01:52:58;98961.00;;;16.83;96.58
30618;BME280;17384;51.214;9.202;2023-06-22T01:55:24;98970.38;;;16.87;96.95
30618;BME280;17384;51.214;9.202;2023-06-22T01:57:49;98965.88;;;16.81;97.19
30618;BME280;17384;51.214;9.202;2023-06-22T02:00:19;98973.53;;;16.79;97.66
30618;BME280;17384;51.214;9.202;2023-06-22T02:03:10;98975.19;;;16.80;98.16
30618;BME280;17384;51.214;9.202;2023-06-22T02:05:39;98979.91;;;16.84;98.74
30618;BME280;17384;51.214;9.202;2023-06-22T02:08:22;98987.06;;;16.85;99.10
30618;BME280;17384;51.214;9.202;2023-06-22T02:10:50;98992.38;;;16.92;99.05
30618;BME280;17384;51.214;9.202;2023-06-22T02:13:18;98993.00;;;16.99;98.76
30618;BME280;17384;51.214;9.202;2023-06-22T02:15:45;99002.38;;;17.03;98.29
30618;BME280;17384;51.214;9.202;2023-06-22T02:18:10;98996.41;;;17.06;97.81
30618;BME280;17384;51.214;9.202;2023-06-22T02:20:37;98993.81;;;17.16;97.19
30618;BME280;17384;51.214;9.202;2023-06-22T02:23:03;98996.47;;;17.33;95.57
30618;BME280;17384;51.214;9.202;2023-06-22T02:25:28;98993.09;;;17.26;95.55
30618;BME280;17384;51.214;9.202;2023-06-22T02:27:54;98986.41;;;17.17;96.09
30618;BME280;17384;51.214;9.202;2023-06-22T02:30:19;98981.69;;;17.12;96.57
30618;BME280;17384;51.214;9.202;2023-06-22T02:32:45;98990.91;;;17.06;97.29
30618;BME280;17384;51.214;9.202;2023-06-22T02:35:10;98981.69;;;17.12;97.55
30618;BME280;17384;51.214;9.202;2023-06-22T02:37:36;98981.03;;;17.05;97.40
30618;BME280;17384;51.214;9.202;2023-06-22T02:40:05;98986.09;;;16.97;98.50
30618;BME280;17384;51.214;9.202;2023-06-22T02:42:32;98980.25;;;16.88;99.08
30618;BME280;17384;51.214;9.202;2023-06-22T02:44:58;98981.25;;;16.82;99.42
30618;BME280;17384;51.214;9.202;2023-06-22T02:47:23;98973.84;;;16.82;100.00
30618;BME280;17384;51.214;9.202;2023-06-22T02:49:48;98979.09;;;16.84;100.00
30618;BME280;17384;51.214;9.202;2023-06-22T02:52:14;98973.09;;;16.87;100.00
30618;BME280;17384;51.214;9.202;2023-06-22T02:54:39;98978.66;;;16.92;100.00
30618;BME280;17384;51.214;9.202;2023-06-22T02:57:05;98962.22;;;16.92;100.00
30618;BME280;17384;51.214;9.202;2023-06-22T02:59:30;98966.41;;;17.00;100.00
30618;BME280;17384;51.214;9.202;2023-06-22T03:01:56;98956.63;;;17.04;100.00
30618;BME280;17384;51.214;9.202;2023-06-22T03:04:21;98966.81;;;17.08;100.00
30618;BME280;17384;51.214;9.202;2023-06-22T03:06:46;98964.72;;;17.15;99.85
30618;BME280;17384;51.214;9.202;2023-06-22T03:09:16;98973.59;;;17.22;98.89
30618;BME280;17384;51.214;9.202;2023-06-22T03:11:42;98983.16;;;17.20;98.40
30618;BME280;17384;51.214;9.202;2023-06-22T03:14:07;98971.88;;;17.16;98.96
30618;BME280;17384;51.214;9.202;2023-06-22T03:16:33;98976.28;;;17.17;98.58
30618;BME280;17384;51.214;9.202;2023-06-22T03:18:59;98976.84;;;17.19;98.86
30618;BME280;17384;51.214;9.202;2023-06-22T03:21:28;98968.13;;;17.22;98.80
30618;BME280;17384;51.214;9.202;2023-06-22T03:23:54;98970.31;;;17.25;99.07
30618;BME280;17384;51.214;9.202;2023-06-22T03:26:19;98945.06;;;17.23;99.22
30618;BME280;17384;51.214;9.202;2023-06-22T03:28:45;98952.53;;;17.28;99.97
30618;BME280;17384;51.214;9.202;2023-06-22T03:31:11;98946.28;;;17.33;100.00
30618;BME280;17384;51.214;9.202;2023-06-22T03:33:36;98946.88;;;17.35;100.00
30618;BME280;17384;51.214;9.202;2023-06-22T03:36:02;98945.97;;;17.29;100.00
30618;BME280;17384;51.214;9.202;2023-06-22T03:38:27;98944.31;;;17.28;100.00
30618;BME280;17384;51.214;9.202;2023-06-22T03:40:52;98936.56;;;17.20;100.00
30618;BME280;17384;51.214;9.202;2023-06-22T03:43:18;98941.78;;;17.21;100.00
30618;BME280;17384;51.214;9.202;2023-06-22T03:45:43;98932.47;;;17.22;100.00
30618;BME280;17384;51.214;9.202;2023-06-22T03:48:11;98942.97;;;17.31;100.00
30618;BME280;17384;51.214;9.202;2023-06-22T03:50:36;98941.06;;;17.31;100.00
30618;BME280;17384;51.214;9.202;2023-06-22T03:53:02;98936.91;;;17.29;100.00
30618;BME280;17384;51.214;9.202;2023-06-22T03:55:28;98940.03;;;17.37;100.00
30618;BME280;17384;51.214;9.202;2023-06-22T03:57:53;98930.16;;;17.36;100.00
30618;BME280;17384;51.214;9.202;2023-06-22T04:00:22;98926.06;;;17.39;100.00
30618;BME280;17384;51.214;9.202;2023-06-22T04:02:48;98937.38;;;17.42;100.00
30618;BME280;17384;51.214;9.202;2023-06-22T04:05:13;98929.41;;;17.41;100.00
30618;BME280;17384;51.214;9.202;2023-06-22T04:07:39;98926.81;;;17.56;100.00
30618;BME280;17384;51.214;9.202;2023-06-22T04:10:05;98932.28;;;17.56;100.00
30618;BME280;17384;51.214;9.202;2023-06-22T04:12:30;98945.91;;;17.68;100.00
30618;BME280;17384;51.214;9.202;2023-06-22T04:14:56;98949.03;;;17.76;100.00
30618;BME280;17384;51.214;9.202;2023-06-22T04:17:21;98945.81;;;17.84;100.00
30618;BME280;17384;51.214;9.202;2023-06-22T04:19:50;98947.00;;;17.93;100.00
30618;BME280;17384;51.214;9.202;2023-06-22T04:22:15;98945.91;;;17.95;100.00
30618;BME280;17384;51.214;9.202;2023-06-22T04:24:40;98944.31;;;17.99;100.00
30618;BME280;17384;51.214;9.202;2023-06-22T04:27:06;98948.19;;;18.03;100.00
30618;BME280;17384;51.214;9.202;2023-06-22T04:29:31;98940.53;;;18.10;99.64
30618;BME280;17384;51.214;9.202;2023-06-22T04:31:57;98940.34;;;18.16;99.54
30618;BME280;17384;51.214;9.202;2023-06-22T04:34:24;98924.13;;;18.15;99.52
30618;BME280;17384;51.214;9.202;2023-06-22T04:36:53;98927.44;;;18.17;99.48
30618;BME280;17384;51.214;9.202;2023-06-22T04:39:18;98930.50;;;18.20;99.90
30618;BME280;17384;51.214;9.202;2023-06-22T04:41:44;98935.72;;;18.22;99.91
30618;BME280;17384;51.214;9.202;2023-06-22T04:46:36;98931.31;;;18.21;100.00
30618;BME280;17384;51.214;9.202;2023-06-22T04:49:04;98928.88;;;18.24;99.85
30618;BME280;17384;51.214;9.202;2023-06-22T04:51:32;98924.22;;;18.25;100.00
30618;BME280;17384;51.214;9.202;2023-06-22T04:53:57;98909.97;;;18.28;100.00
30618;BME280;17384;51.214;9.202;2023-06-22T04:56:26;98910.53;;;18.30;100.00
30618;BME280;17384;51.214;9.202;2023-06-22T04:58:53;98912.78;;;18.38;100.00
30618;BME280;17384;51.214;9.202;2023-06-22T05:01:21;98906.97;;;18.35;100.00
30618;BME280;17384;51.214;9.202;2023-06-22T05:03:47;98906.22;;;18.44;100.00
30618;BME280;17384;51.214;9.202;2023-06-22T05:06:13;98893.09;;;18.51;100.00
30618;BME280;17384;51.214;9.202;2023-06-22T05:08:39;98903.06;;;18.63;100.00
30618;BME280;17384;51.214;9.202;2023-06-22T05:11:05;98899.91;;;18.81;99.50
30618;BME280;17384;51.214;9.202;2023-06-22T05:13:31;98907.66;;;18.94;98.61
30618;BME280;17384;51.214;9.202;2023-06-22T05:15:56;98907.16;;;19.02;97.99
30618;BME280;17384;51.214;9.202;2023-06-22T05:18:27;98896.22;;;19.12;97.73
30618;BME280;17384;51.214;9.202;2023-06-22T05:20:54;98906.66;;;19.15;97.71
30618;BME280;17384;51.214;9.202;2023-06-22T05:23:20;98904.72;;;19.11;97.46
30618;BME280;17384;51.214;9.202;2023-06-22T05:25:45;98910.00;;;19.27;96.88
30618;BME280;17384;51.214;9.202;2023-06-22T05:28:11;98910.59;;;19.45;96.42
30618;BME280;17384;51.214;9.202;2023-06-22T05:30:37;98905.22;;;19.65;95.97
30618;BME280;17384;51.214;9.202;2023-06-22T05:33:03;98907.41;;;19.78;95.09
30618;BME280;17384;51.214;9.202;2023-06-22T05:35:29;98909.09;;;19.84;94.49
30618;BME280;17384;51.214;9.202;2023-06-22T05:37:55;98911.25;;;19.72;93.38
30618;BME280;17384;51.214;9.202;2023-06-22T05:40:21;98903.56;;;19.79;93.64
30618;BME280;17384;51.214;9.202;2023-06-22T05:42:46;98900.00;;;19.79;92.98
30618;BME280;17384;51.214;9.202;2023-06-22T05:45:12;98907.44;;;19.88;92.74
30618;BME280;17384;51.214;9.202;2023-06-22T05:47:38;98919.28;;;19.99;92.54
30618;BME280;17384;51.214;9.202;2023-06-22T05:50:04;98933.91;;;19.94;91.87
30618;BME280;17384;51.214;9.202;2023-06-22T05:52:32;98922.06;;;19.94;91.18
30618;BME280;17384;51.214;9.202;2023-06-22T05:54:58;98926.72;;;19.83;91.07
30618;BME280;17384;51.214;9.202;2023-06-22T05:57:23;98920.91;;;19.80;91.25
30618;BME280;17384;51.214;9.202;2023-06-22T05:59:49;98929.22;;;19.90;91.22
30618;BME280;17384;51.214;9.202;2023-06-22T06:02:14;98931.09;;;19.79;91.50
30618;BME280;17384;51.214;9.202;2023-06-22T06:04:40;98937.75;;;19.93;91.40
30618;BME280;17384;51.214;9.202;2023-06-22T06:07:05;98938.31;;;20.11;91.02
30618;BME280;17384;51.214;9.202;2023-06-22T06:09:31;98944.63;;;20.06;90.96
30618;BME280;17384;51.214;9.202;2023-06-22T06:11:56;98938.03;;;20.12;91.14
30618;BME280;17384;51.214;9.202;2023-06-22T06:14:21;98944.94;;;20.20;90.91
30618;BME280;17384;51.214;9.202;2023-06-22T06:16:48;98937.78;;;20.19;90.80
30618;BME280;17384;51.214;9.202;2023-06-22T06:19:14;98947.69;;;20.15;91.16
30618;BME280;17384;51.214;9.202;2023-06-22T06:21:39;98940.22;;;20.25;90.29
30618;BME280;17384;51.214;9.202;2023-06-22T06:24:05;98943.53;;;20.02;90.44
30618;BME280;17384;51.214;9.202;2023-06-22T06:26:31;98946.59;;;20.21;90.08
30618;BME280;17384;51.214;9.202;2023-06-22T06:29:00;98940.53;;;20.24;89.86
30618;BME280;17384;51.214;9.202;2023-06-22T06:31:25;98932.25;;;20.09;90.03
30618;BME280;17384;51.214;9.202;2023-06-22T06:33:54;98927.84;;;20.13;90.29
30618;BME280;17384;51.214;9.202;2023-06-22T06:36:19;98933.09;;;20.19;90.04
30618;BME280;17384;51.214;9.202;2023-06-22T06:38:45;98935.00;;;20.34;89.62
30618;BME280;17384;51.214;9.202;2023-06-22T06:41:15;98942.72;;;20.32;89.23
30618;BME280;17384;51.214;9.202;2023-06-22T06:43:41;98942.22;;;20.45;89.73
30618;BME280;17384;51.214;9.202;2023-06-22T06:46:10;98939.47;;;20.50;90.21
30618;BME280;17384;51.214;9.202;2023-06-22T06:48:35;98932.25;;;20.70;89.08
30618;BME280;17384;51.214;9.202;2023-06-22T06:51:01;98933.88;;;20.81;88.82
30618;BME280;17384;51.214;9.202;2023-06-22T06:53:26;98927.16;;;21.17;87.79
30618;BME280;17384;51.214;9.202;2023-06-22T06:58:19;98925.94;;;21.54;86.10
30618;BME280;17384;51.214;9.202;2023-06-22T07:00:45;98926.34;;;21.81;83.69
30618;BME280;17384;51.214;9.202;2023-06-22T07:03:10;98931.16;;;22.10;83.35
30618;BME280;17384;51.214;9.202;2023-06-22T07:05:36;98924.59;;;22.63;80.48
30618;BME280;17384;51.214;9.202;2023-06-22T07:08:01;98909.63;;;23.41;78.69
30618;BME280;17384;51.214;9.202;2023-06-22T07:10:28;98915.56;;;23.77;75.43
30618;BME280;17384;51.214;9.202;2023-06-22T07:12:54;98919.06;;;24.02;75.03
30618;BME280;17384;51.214;9.202;2023-06-22T07:15:20;98915.03;;;24.45;72.61
30618;BME280;17384;51.214;9.202;2023-06-22T07:17:45;98910.25;;;24.51;71.89
30618;BME280;17384;51.214;9.202;2023-06-22T07:20:11;98914.91;;;24.37;72.05
30618;BME280;17384;51.214;9.202;2023-06-22T07:22:38;98909.84;;;24.06;71.85
30618;BME280;17384;51.214;9.202;2023-06-22T07:25:04;98908.81;;;24.67;71.45
30618;BME280;17384;51.214;9.202;2023-06-22T07:27:38;98914.88;;;25.29;68.17
30618;BME280;17384;51.214;9.202;2023-06-22T07:30:05;98901.88;;;25.52;65.99
30618;BME280;17384;51.214;9.202;2023-06-22T07:32:32;98915.88;;;25.74;67.02
30618;BME280;17384;51.214;9.202;2023-06-22T07:34:57;98914.22;;;25.73;67.61
30618;BME280;17384;51.214;9.202;2023-06-22T07:37:23;98908.88;;;25.49;67.41
30618;BME280;17384;51.214;9.202;2023-06-22T07:39:48;98913.06;;;25.88;66.91
30618;BME280;17384;51.214;9.202;2023-06-22T07:42:15;98916.22;;;25.32;68.36
30618;BME280;17384;51.214;9.202;2023-06-22T07:44:44;98913.84;;;25.66;66.63
30618;BME280;17384;51.214;9.202;2023-06-22T07:47:09;98909.34;;;25.92;66.33
30618;BME280;17384;51.214;9.202;2023-06-22T07:49:34;98908.47;;;26.06;65.77
30618;BME280;17384;51.214;9.202;2023-06-22T07:52:00;98908.16;;;26.29;64.97
30618;BME280;17384;51.214;9.202;2023-06-22T07:54:26;98899.50;;;26.76;64.17
30618;BME280;17384;51.214;9.202;2023-06-22T07:56:52;98902.56;;;26.96;64.00
30618;BME280;17384;51.214;9.202;2023-06-22T07:59:18;98896.22;;;26.74;62.61
30618;BME280;17384;51.214;9.202;2023-06-22T08:01:43;98902.72;;;26.69;62.33
30618;BME280;17384;51.214;9.202;2023-06-22T08:04:08;98900.31;;;26.76;62.91
30618;BME280;17384;51.214;9.202;2023-06-22T08:06:34;98888.38;;;26.84;62.64
30618;BME280;17384;51.214;9.202;2023-06-22T08:08:59;98883.84;;;27.28;62.34
30618;BME280;17384;51.214;9.202;2023-06-22T08:11:25;98883.63;;;27.16;61.68
30618;BME280;17384;51.214;9.202;2023-06-22T08:13:51;98871.34;;;28.08;60.42
30618;BME280;17384;51.214;9.202;2023-06-22T08:16:17;98863.06;;;28.63;57.05
30618;BME280;17384;51.214;9.202;2023-06-22T08:18:43;98859.78;;;29.08;54.59
30618;BME280;17384;51.214;9.202;2023-06-22T08:21:08;98872.31;;;29.40;54.01
30618;BME280;17384;51.214;9.202;2023-06-22T08:23:34;98870.00;;;29.63;52.82
30618;BME280;17384;51.214;9.202;2023-06-22T08:26:00;98872.53;;;30.06;51.56
30618;BME280;17384;51.214;9.202;2023-06-22T08:28:25;98867.16;;;29.92;51.84
30618;BME280;17384;51.214;9.202;2023-06-22T08:30:51;98879.81;;;30.52;50.29
30618;BME280;17384;51.214;9.202;2023-06-22T08:33:16;98879.19;;;30.35;51.08
30618;BME280;17384;51.214;9.202;2023-06-22T08:35:42;98864.94;;;30.73;48.39
30618;BME280;17384;51.214;9.202;2023-06-22T08:38:08;98865.63;;;30.70;50.82
30618;BME280;17384;51.214;9.202;2023-06-22T08:40:34;98867.75;;;30.73;50.16
30618;BME280;17384;51.214;9.202;2023-06-22T08:42:59;98863.28;;;31.17;49.89
30618;BME280;17384;51.214;9.202;2023-06-22T08:45:25;98862.66;;;30.87;50.65
30618;BME280;17384;51.214;9.202;2023-06-22T08:47:50;98852.50;;;30.16;51.93
30618;BME280;17384;51.214;9.202;2023-06-22T08:50:16;98854.59;;;29.57;53.49
30618;BME280;17384;51.214;9.202;2023-06-22T08:52:41;98831.56;;;30.02;53.00
30618;BME280;17384;51.214;9.202;2023-06-22T08:55:07;98830.56;;;30.06;52.63
30618;BME280;17384;51.214;9.202;2023-06-22T08:57:34;98838.78;;;29.61;52.63
30618;BME280;17384;51.214;9.202;2023-06-22T08:59:59;98836.53;;;29.25;54.21
30618;BME280;17384;51.214;9.202;2023-06-22T09:02:25;98829.56;;;29.60;52.11
30618;BME280;17384;51.214;9.202;2023-06-22T09:04:51;98837.16;;;29.81;50.00
30618;BME280;17384;51.214;9.202;2023-06-22T09:07:21;98847.97;;;29.32;50.41
30618;BME280;17384;51.214;9.202;2023-06-22T09:09:47;98847.22;;;28.76;50.72
30618;BME280;17384;51.214;9.202;2023-06-22T09:12:13;98845.72;;;29.55;49.78
30618;BME280;17384;51.214;9.202;2023-06-22T09:14:38;98841.44;;;29.57;49.55
30618;BME280;17384;51.214;9.202;2023-06-22T09:17:04;98837.81;;;29.27;51.58
30618;BME280;17384;51.214;9.202;2023-06-22T09:19:30;98835.09;;;29.90;47.51
30618;BME280;17384;51.214;9.202;2023-06-22T09:21:55;98831.34;;;29.65;47.87
30618;BME280;17384;51.214;9.202;2023-06-22T09:24:21;98814.88;;;30.38;46.36
30618;BME280;17384;51.214;9.202;2023-06-22T09:26:46;98816.72;;;30.67;45.27
30618;BME280;17384;51.214;9.202;2023-06-22T09:29:11;98820.47;;;30.71;44.41
30618;BME280;17384;51.214;9.202;2023-06-22T09:31:37;98814.19;;;30.86;44.84
30618;BME280;17384;51.214;9.202;2023-06-22T09:34:02;98809.19;;;31.28;45.96
30618;BME280;17384;51.214;9.202;2023-06-22T09:36:28;98804.88;;;30.49;44.89
30618;BME280;17384;51.214;9.202;2023-06-22T09:38:53;98802.78;;;30.46;45.17
30618;BME280;17384;51.214;9.202;2023-06-22T09:41:24;98800.38;;;29.70;46.00
30618;BME280;17384;51.214;9.202;2023-06-22T09:43:49;98799.34;;;29.95;49.38
30618;BME280;17384;51.214;9.202;2023-06-22T09:46:15;98790.44;;;29.81;47.16
30618;BME280;17384;51.214;9.202;2023-06-22T09:48:41;98780.84;;;29.82;47.98
30618;BME280;17384;51.214;9.202;2023-06-22T09:51:06;98785.13;;;30.21;46.64
30618;BME280;17384;51.214;9.202;2023-06-22T09:53:32;98779.91;;;29.99;46.15
30618;BME280;17384;51.214;9.202;2023-06-22T09:55:57;98771.50;;;30.32;46.94
30618;BME280;17384;51.214;9.202;2023-06-22T09:58:23;98783.09;;;30.55;45.47
30618;BME280;17384;51.214;9.202;2023-06-22T10:00:48;98769.13;;;30.22;46.40
30618;BME280;17384;51.214;9.202;2023-06-22T10:03:14;98770.22;;;30.42;45.77
30618;BME280;17384;51.214;9.202;2023-06-22T10:05:39;98769.41;;;30.41;45.15
30618;BME280;17384;51.214;9.202;2023-06-22T10:08:05;98770.13;;;30.50;46.54
30618;BME280;17384;51.214;9.202;2023-06-22T10:10:32;98764.91;;;30.97;44.47
30618;BME280;17384;51.214;9.202;2023-06-22T10:13:06;98759.19;;;31.30;44.49
30618;BME280;17384;51.214;9.202;2023-06-22T10:15:32;98752.47;;;31.87;42.66
30618;BME280;17384;51.214;9.202;2023-06-22T10:17:57;98751.66;;;31.47;43.99
30618;BME280;17384;51.214;9.202;2023-06-22T10:20:23;98748.00;;;31.58;40.88
30618;BME280;17384;51.214;9.202;2023-06-22T10:22:49;98741.44;;;31.26;42.25
30618;BME280;17384;51.214;9.202;2023-06-22T10:25:14;98750.56;;;30.87;43.25
30618;BME280;17384;51.214;9.202;2023-06-22T10:27:40;98751.72;;;30.74;43.71
30618;BME280;17384;51.214;9.202;2023-06-22T10:30:07;98752.03;;;30.36;43.91
30618;BME280;17384;51.214;9.202;2023-06-22T10:32:33;98744.41;;;30.24;44.04
30618;BME280;17384;51.214;9.202;2023-06-22T10:34:58;98722.94;;;30.04;44.41
30618;BME280;17384;51.214;9.202;2023-06-22T10:37:24;98707.47;;;29.97;45.59
30618;BME280;17384;51.214;9.202;2023-06-22T10:39:49;98717.34;;;29.50;46.28
30618;BME280;17384;51.214;9.202;2023-06-22T10:42:15;98723.00;;;29.41;44.83
30618;BME280;17384;51.214;9.202;2023-06-22T10:44:40;98720.47;;;30.02;44.36
30618;BME280;17384;51.214;9.202;2023-06-22T10:47:08;98710.56;;;30.17;44.25
30618;BME280;17384;51.214;9.202;2023-06-22T10:49:34;98711.78;;;30.28;44.79
30618;BME280;17384;51.214;9.202;2023-06-22T10:51:59;98705.81;;;30.42;44.85
30618;BME280;17384;51.214;9.202;2023-06-22T10:54:24;98702.09;;;30.25;44.62
30618;BME280;17384;51.214;9.202;2023-06-22T10:56:50;98690.81;;;30.58;44.58
30618;BME280;17384;51.214;9.202;2023-06-22T10:59:15;98695.56;;;30.46;42.82
30618;BME280;17384;51.214;9.202;2023-06-22T11:01:41;98685.78;;;29.94;46.41
30618;BME280;17384;51.214;9.202;2023-06-22T11:04:06;98686.47;;;29.91;44.18
30618;BME280;17384;51.214;9.202;2023-06-22T11:06:32;98692.75;;;29.55;45.11
30618;BME280;17384;51.214;9.202;2023-06-22T11:08:57;98679.00;;;29.83;47.02
30618;BME280;17384;51.214;9.202;2023-06-22T11:11:25;98682.72;;;30.93;44.35
30618;BME280;17384;51.214;9.202;2023-06-22T11:13:51;98681.16;;;31.88;41.91
30618;BME280;17384;51.214;9.202;2023-06-22T11:16:16;98675.38;;;32.13;41.30
30618;BME280;17384;51.214;9.202;2023-06-22T11:18:41;98676.13;;;30.61;42.33
30618;BME280;17384;51.214;9.202;2023-06-22T11:21:07;98668.72;;;30.08;43.54
30618;BME280;17384;51.214;9.202;2023-06-22T11:23:32;98645.22;;;29.55;45.37
30618;BME280;17384;51.214;9.202;2023-06-22T11:25:58;98643.72;;;29.58;45.31
30618;BME280;17384;51.214;9.202;2023-06-22T11:28:23;98633.88;;;29.73;44.17
30618;BME280;17384;51.214;9.202;2023-06-22T11:30:48;98635.38;;;29.70;46.99
30618;BME280;17384;51.214;9.202;2023-06-22T11:33:14;98637.97;;;29.75;45.78
30618;BME280;17384;51.214;9.202;2023-06-22T11:35:40;98615.44;;;29.39;45.26
30618;BME280;17384;51.214;9.202;2023-06-22T11:38:05;98632.13;;;28.93;45.79
30618;BME280;17384;51.214;9.202;2023-06-22T11:40:31;98613.03;;;29.16;46.34
30618;BME280;17384;51.214;9.202;2023-06-22T11:42:56;98605.44;;;29.38;46.25
30618;BME280;17384;51.214;9.202;2023-06-22T11:45:21;98603.47;;;29.71;43.93
30618;BME280;17384;51.214;9.202;2023-06-22T11:47:47;98606.84;;;29.77;45.70
30618;BME280;17384;51.214;9.202;2023-06-22T11:50:13;98595.81;;;30.41;43.70
30618;BME280;17384;51.214;9.202;2023-06-22T11:52:38;98589.25;;;29.88;43.45
30618;BME280;17384;51.214;9.202;2023-06-22T11:55:05;98582.00;;;29.63;43.79
30618;BME280;17384;51.214;9.202;2023-06-22T11:57:36;98577.22;;;29.51;45.25
30618;BME280;17384;51.214;9.202;2023-06-22T12:00:05;98569.09;;;29.71;44.05
30618;BME280;17384;51.214;9.202;2023-06-22T12:02:41;98572.94;;;29.90;44.55
30618;BME280;17384;51.214;9.202;2023-06-22T12:05:07;98567.44;;;29.70;44.41
30618;BME280;17384;51.214;9.202;2023-06-22T12:07:33;98564.75;;;29.61;44.97
30618;BME280;17384;51.214;9.202;2023-06-22T12:09:58;98565.44;;;29.58;44.04
30618;BME280;17384;51.214;9.202;2023-06-22T12:12:24;98582.81;;;29.51;45.49
30618;BME280;17384;51.214;9.202;2023-06-22T12:14:49;98573.94;;;29.28;45.15
30618;BME280;17384;51.214;9.202;2023-06-22T12:17:15;98563.31;;;28.89;45.44
30618;BME280;17384;51.214;9.202;2023-06-22T12:19:40;98552.31;;;29.25;46.50
30618;BME280;17384;51.214;9.202;2023-06-22T12:22:06;98554.16;;;29.21;46.78
30618;BME280;17384;51.214;9.202;2023-06-22T12:24:31;98558.94;;;29.00;45.72
30618;BME280;17384;51.214;9.202;2023-06-22T12:26:57;98561.06;;;29.03;45.06
30618;BME280;17384;51.214;9.202;2023-06-22T12:29:22;98548.16;;;29.11;45.92
30618;BME280;17384;51.214;9.202;2023-06-22T12:31:47;98541.13;;;29.71;44.46
30618;BME280;17384;51.214;9.202;2023-06-22T12:34:13;98550.59;;;30.27;43.08
30618;BME280;17384;51.214;9.202;2023-06-22T12:36:38;98554.00;;;30.85;42.89
30618;BME280;17384;51.214;9.202;2023-06-22T12:39:04;98547.78;;;31.19;42.42
30618;BME280;17384;51.214;9.202;2023-06-22T12:41:29;98557.19;;;30.99;40.45
30618;BME280;17384;51.214;9.202;2023-06-22T12:43:55;98538.47;;;29.99;43.21
30618;BME280;17384;51.214;9.202;2023-06-22T12:46:20;98535.78;;;30.26;43.05
30618;BME280;17384;51.214;9.202;2023-06-22T12:48:46;98532.44;;;30.73;40.99
30618;BME280;17384;51.214;9.202;2023-06-22T12:51:11;98528.44;;;30.22;42.99
30618;BME280;17384;51.214;9.202;2023-06-22T12:53:37;98516.31;;;30.18;42.91
30618;BME280;17384;51.214;9.202;2023-06-22T12:56:03;98508.28;;;30.04;42.36
30618;BME280;17384;51.214;9.202;2023-06-22T12:58:29;98513.41;;;29.78;42.50
30618;BME280;17384;51.214;9.202;2023-06-22T13:00:54;98497.44;;;30.03;42.47
30618;BME280;17384;51.214;9.202;2023-06-22T13:03:20;98481.09;;;30.69;41.49